Time;durP1;ratioP1;P1;durP2;ratioP2;P2;SDS_P1;SDS_P2;PMS_P1;PMS_P2;Temp;Humidity;BMP_temperature;BMP_pressure;BME280_temperature;BME280_humidity;BME280_pressure;Samples;Min_cycle;Max_cycle;Signal;HPM_P1;HPM_P2
2023/01/30 00:00:59;;;;;;;18.98;6.90;;;6.60;99.90;;;;;;5074247;28;20608;-84
2023/01/30 00:03:25;;;;;;;16.75;7.63;;;6.60;99.90;;;;;;5057413;28;20060;-84
2023/01/30 00:05:51;;;;;;;22.08;6.93;;;6.70;99.90;;;;;;5056551;28;20037;-84
2023/01/30 00:08:17;;;;;;;17.77;7.10;;;6.60;99.90;;;;;;5057774;28;20047;-84
2023/01/30 00:10:44;;;;;;;14.98;6.93;;;6.80;99.90;;;;;;5040888;28;20039;-84
2023/01/30 00:13:10;;;;;;;12.75;6.63;;;6.90;99.90;;;;;;5057569;28;20036;-84
2023/01/30 00:15:36;;;;;;;18.27;6.32;;;6.70;99.90;;;;;;5073919;28;20093;-84
2023/01/30 00:18:03;;;;;;;13.98;7.63;;;6.70;99.90;;;;;;5057416;28;20435;-84
2023/01/30 00:20:29;;;;;;;17.05;7.35;;;6.70;99.90;;;;;;5040826;28;20036;-84
2023/01/30 00:22:54;;;;;;;15.63;6.43;;;6.70;99.90;;;;;;5056668;28;20485;-84
2023/01/30 00:25:20;;;;;;;14.45;6.50;;;6.70;99.90;;;;;;5040953;28;20553;-84
2023/01/30 00:27:46;;;;;;;15.70;7.38;;;6.70;99.90;;;;;;5073836;28;20083;-84
2023/01/30 00:30:12;;;;;;;12.23;5.63;;;6.90;99.90;;;;;;5040522;28;20054;-85
2023/01/30 00:32:37;;;;;;;14.38;6.82;;;6.70;99.90;;;;;;5041087;28;20094;-84
2023/01/30 00:35:05;;;;;;;16.58;6.60;;;6.70;99.90;;;;;;5023386;28;20045;-84
2023/01/30 00:37:31;;;;;;;15.98;6.85;;;6.70;99.90;;;;;;5056638;28;20043;-84
2023/01/30 00:39:57;;;;;;;12.45;5.50;;;7.20;99.90;;;;;;5072638;28;20033;-85
2023/01/30 00:47:55;;;;;;;14.82;6.13;;;6.80;99.90;;;;;;5059020;28;20500;-84
2023/01/30 00:50:21;;;;;;;15.63;6.15;;;6.80;99.90;;;;;;5040883;28;20044;-83
2023/01/30 00:52:46;;;;;;;15.75;5.47;;;6.70;99.90;;;;;;5038211;28;20071;-84
2023/01/30 00:55:14;;;;;;;15.35;5.95;;;6.70;99.90;;;;;;5072751;28;20075;-83
2023/01/30 00:57:40;;;;;;;14.75;5.80;;;6.70;99.90;;;;;;5023247;28;20084;-83
2023/01/30 01:00:08;;;;;;;13.25;5.90;;;6.70;99.90;;;;;;5055939;28;20058;-83
2023/01/30 01:02:34;;;;;;;13.57;5.15;;;6.70;99.90;;;;;;5056230;28;20510;-83
2023/01/30 01:05:00;;;;;;;11.82;5.05;;;6.70;99.90;;;;;;5055428;28;20408;-82
2023/01/30 01:07:25;;;;;;;13.50;4.95;;;6.70;99.90;;;;;;5072959;28;20040;-82
2023/01/30 01:09:51;;;;;;;11.85;5.03;;;6.70;99.90;;;;;;5040032;28;20028;-81
2023/01/30 01:12:17;;;;;;;12.18;5.20;;;6.80;99.90;;;;;;5073265;28;20234;-82
2023/01/30 01:14:42;;;;;;;12.98;4.80;;;6.70;99.90;;;;;;5039383;28;20033;-82
2023/01/30 01:17:08;;;;;;;13.20;5.23;;;6.60;99.90;;;;;;5056469;28;20032;-82
2023/01/30 01:19:34;;;;;;;14.13;4.47;;;6.60;99.90;;;;;;5056556;28;20271;-82
2023/01/30 01:21:59;;;;;;;14.60;4.95;;;6.60;99.90;;;;;;5055821;28;20075;-82
2023/01/30 01:24:26;;;;;;;13.60;5.00;;;6.60;99.90;;;;;;5040050;28;20036;-82
2023/01/30 01:26:52;;;;;;;10.95;4.25;;;6.60;99.90;;;;;;5056829;28;20428;-82
2023/01/30 01:29:18;;;;;;;11.82;4.07;;;6.70;99.90;;;;;;5073576;28;20079;-82
2023/01/30 01:31:44;;;;;;;6.68;3.15;;;6.60;99.90;;;;;;5056574;28;20040;-82
2023/01/30 01:34:10;;;;;;;13.07;4.15;;;6.60;99.90;;;;;;5072766;28;20040;-82
2023/01/30 01:36:36;;;;;;;8.90;4.40;;;6.60;99.90;;;;;;5072900;28;20051;-82
2023/01/30 01:39:02;;;;;;;13.00;4.32;;;6.70;99.90;;;;;;5039185;28;20094;-82
2023/01/30 01:41:28;;;;;;;8.73;3.75;;;6.60;99.90;;;;;;5072253;28;20036;-82
2023/01/30 01:44:08;;;;;;;8.68;3.45;;;6.60;99.90;;;;;;5056163;28;20136;-82
2023/01/30 01:46:42;;;;;;;11.45;3.45;;;6.60;99.90;;;;;;5051772;28;20446;-82
2023/01/30 01:49:16;;;;;;;15.68;4.03;;;6.60;99.90;;;;;;5072003;28;20090;-81
2023/01/30 01:52:06;;;;;;;8.65;3.97;;;6.70;99.90;;;;;;5071983;28;20047;-81
2023/01/30 01:54:54;;;;;;;14.55;4.40;;;6.70;99.90;;;;;;5054019;28;20040;-81
2023/01/30 01:57:27;;;;;;;10.93;4.03;;;6.70;99.90;;;;;;5071813;28;20053;-81
2023/01/30 02:00:11;;;;;;;8.57;3.75;;;6.60;99.90;;;;;;5070017;28;20094;-81
2023/01/30 02:02:48;;;;;;;12.38;4.38;;;6.70;99.90;;;;;;5072237;28;20106;-81
2023/01/30 02:05:16;;;;;;;14.95;4.72;;;6.70;99.90;;;;;;5069020;28;20044;-81
2023/01/30 02:07:47;;;;;;;16.98;5.03;;;6.70;99.90;;;;;;5072399;28;20055;-82
2023/01/30 02:10:17;;;;;;;10.68;4.65;;;6.70;99.90;;;;;;5071939;28;20129;-82
2023/01/30 02:12:44;;;;;;;18.65;5.68;;;6.70;99.90;;;;;;5071636;28;20040;-82
2023/01/30 02:15:10;;;;;;;17.95;4.85;;;6.70;99.90;;;;;;5037575;28;20028;-82
2023/01/30 02:17:36;;;;;;;17.80;5.85;;;6.60;99.90;;;;;;5055847;28;20029;-82
2023/01/30 02:20:06;;;;;;;14.70;5.03;;;6.70;99.90;;;;;;5055085;28;20040;-82
2023/01/30 02:23:09;;;;;;;18.00;5.55;;;6.70;99.90;;;;;;5054339;28;20032;-81
2023/01/30 02:26:20;;;;;;;16.75;5.35;;;6.80;99.90;;;;;;5070339;28;20450;-81
2023/01/30 02:29:04;;;;;;;19.38;5.03;;;6.80;99.90;;;;;;5053083;28;20047;-82
2023/01/30 02:31:51;;;;;;;22.58;5.13;;;6.80;99.90;;;;;;5053676;28;20036;-82
2023/01/30 02:34:28;;;;;;;17.50;5.60;;;6.70;99.90;;;;;;5070659;28;20048;-82
2023/01/30 02:37:05;;;;;;;20.88;4.68;;;6.70;99.90;;;;;;5070872;28;20036;-82
2023/01/30 02:39:31;;;;;;;;;;;6.80;99.90;;;;;;5070825;28;20123;-82
2023/01/30 02:42:03;;;;;;;16.50;5.30;;;6.80;99.90;;;;;;5071774;28;19956;-82
2023/01/30 02:44:46;;;;;;;20.02;4.75;;;6.80;99.90;;;;;;5071356;28;20043;-83
2023/01/30 02:47:28;;;;;;;19.60;5.50;;;6.80;99.90;;;;;;5071816;28;20503;-83
2023/01/30 02:50:06;;;;;;;17.25;6.18;;;6.80;99.90;;;;;;5072537;28;20058;-83
2023/01/30 02:52:33;;;;;;;21.83;4.47;;;7.00;99.90;;;;;;5071847;28;20039;-83
2023/01/30 02:54:58;;;;;;;;;;;6.80;99.90;;;;;;5053465;28;20127;-83
2023/01/30 02:57:26;;;;;;;24.50;5.40;;;6.90;99.90;;;;;;5055129;28;19925;-83
2023/01/30 02:59:58;;;;;;;15.00;4.28;;;6.90;99.90;;;;;;5038516;28;20094;-83
2023/01/30 03:02:35;;;;;;;13.65;4.18;;;6.90;99.90;;;;;;5079666;28;20024;-83
2023/01/30 03:05:07;;;;;;;20.52;4.15;;;6.90;99.90;;;;;;5058948;28;20541;-83
2023/01/30 03:07:51;;;;;;;17.55;4.07;;;7.00;99.90;;;;;;5066280;28;20540;-83
2023/01/30 03:10:48;;;;;;;20.75;4.25;;;7.00;99.90;;;;;;5071862;28;20072;-84
2023/01/30 03:13:38;;;;;;;21.08;3.72;;;7.00;99.90;;;;;;5047106;28;20044;-84
2023/01/30 03:16:08;;;;;;;14.45;3.97;;;7.00;99.90;;;;;;5055141;28;20048;-84
2023/01/30 03:18:34;;;;;;;19.98;4.53;;;7.00;99.90;;;;;;5072232;28;20396;-83
2023/01/30 03:21:07;;;;;;;20.40;4.00;;;7.00;99.90;;;;;;5038770;28;20047;-84
2023/01/30 03:23:32;;;;;;;18.58;3.75;;;7.00;99.90;;;;;;5054745;28;20142;-84
2023/01/30 03:25:59;;;;;;;18.08;3.58;;;6.90;99.90;;;;;;5038685;28;20111;-83
2023/01/30 03:28:26;;;;;;;20.38;4.40;;;6.90;99.90;;;;;;5059665;28;20105;-83
2023/01/30 03:30:51;;;;;;;;;;;6.90;99.90;;;;;;5076918;28;20134;-83
2023/01/30 03:33:17;;;;;;;15.32;3.47;;;6.80;99.90;;;;;;5066520;28;19931;-83
2023/01/30 03:35:43;;;;;;;14.25;4.05;;;7.20;99.90;;;;;;5024891;28;20130;-82
2023/01/30 03:38:09;;;;;;;17.15;3.05;;;6.70;99.90;;;;;;5058997;28;20058;-83
2023/01/30 03:40:35;;;;;;;14.40;3.45;;;6.70;99.90;;;;;;5075793;28;20117;-83
2023/01/30 03:43:01;;;;;;;25.70;3.80;;;6.60;99.90;;;;;;5058753;28;20056;-83
2023/01/30 03:45:26;;;;;;;12.20;3.17;;;6.50;99.90;;;;;;5058906;28;20047;-83
2023/01/30 03:47:52;;;;;;;13.97;2.90;;;6.50;99.90;;;;;;5075811;28;20283;-83
2023/01/30 03:50:18;;;;;;;14.70;3.20;;;6.40;99.90;;;;;;5041684;28;20318;-83
2023/01/30 03:52:44;;;;;;;16.13;3.20;;;6.40;99.90;;;;;;5058403;28;20318;-83
2023/01/30 03:55:10;;;;;;;16.23;3.65;;;6.30;99.90;;;;;;5041044;28;20033;-83
2023/01/30 03:57:36;;;;;;;19.52;5.47;;;6.20;99.90;;;;;;5074716;28;20052;-83
2023/01/30 04:00:03;;;;;;;12.43;3.25;;;6.20;99.90;;;;;;5058555;28;20136;-83
2023/01/30 04:02:29;;;;;;;16.88;3.22;;;6.20;99.90;;;;;;5057709;28;20032;-83
2023/01/30 04:04:55;;;;;;;14.73;4.40;;;6.30;99.90;;;;;;5041787;28;20097;-83
2023/01/30 04:07:21;;;;;;;19.38;3.45;;;6.20;99.90;;;;;;5058279;28;20082;-83
2023/01/30 04:09:46;;;;;;;14.65;3.00;;;6.20;99.90;;;;;;5041705;28;20075;-83
2023/01/30 04:12:12;;;;;;;19.83;3.28;;;6.20;99.90;;;;;;5058521;28;20044;-83
2023/01/30 04:14:38;;;;;;;18.55;3.35;;;6.20;99.90;;;;;;5058700;28;20025;-83
2023/01/30 04:17:04;;;;;;;10.43;2.53;;;6.10;99.90;;;;;;5041486;28;20060;-83
2023/01/30 04:19:29;;;;;;;19.37;2.70;;;6.10;99.90;;;;;;5057918;28;20634;-83
2023/01/30 04:21:55;;;;;;;13.30;3.20;;;6.10;99.90;;;;;;5074366;28;20286;-83
2023/01/30 04:24:21;;;;;;;11.83;3.37;;;6.10;99.90;;;;;;5041644;28;20635;-83
2023/01/30 04:26:46;;;;;;;19.43;4.10;;;6.10;99.90;;;;;;5057754;28;20275;-84
2023/01/30 04:29:12;;;;;;;17.33;3.50;;;6.00;99.90;;;;;;5057832;28;20041;-83
2023/01/30 04:31:38;;;;;;;26.00;3.90;;;6.00;99.90;;;;;;5056833;28;20046;-84
2023/01/30 04:34:03;;;;;;;19.55;3.20;;;5.90;99.90;;;;;;5056737;28;20036;-83
2023/01/30 04:36:29;;;;;;;22.00;3.72;;;5.90;99.90;;;;;;5041141;28;20036;-83
2023/01/30 04:38:57;;;;;;;15.80;2.70;;;6.60;99.90;;;;;;5040195;28;20040;-84
2023/01/30 04:41:23;;;;;;;18.85;3.72;;;6.00;99.90;;;;;;5041637;28;20282;-84
2023/01/30 04:43:49;;;;;;;21.02;3.92;;;5.80;99.90;;;;;;5057189;28;20039;-84
2023/01/30 04:46:14;;;;;;;23.00;3.50;;;5.90;99.90;;;;;;5024514;28;20064;-84
2023/01/30 04:48:40;;;;;;;20.98;3.83;;;6.50;99.90;;;;;;5057866;28;20275;-84
2023/01/30 04:51:06;;;;;;;24.27;3.83;;;5.90;99.90;;;;;;5057456;28;20119;-84
2023/01/30 04:53:32;;;;;;;14.10;2.80;;;5.90;99.90;;;;;;5056841;28;20033;-83
2023/01/30 04:55:57;;;;;;;17.00;2.60;;;6.00;99.90;;;;;;5040765;28;20476;-83
2023/01/30 04:58:23;;;;;;;13.90;2.60;;;5.90;99.90;;;;;;5022369;28;20291;-84
2023/01/30 05:00:49;;;;;;;11.35;2.85;;;5.90;99.90;;;;;;5041227;28;20279;-83
2023/01/30 05:03:15;;;;;;;8.70;1.90;;;5.90;99.90;;;;;;5040377;28;20037;-84
2023/01/30 05:05:44;;;;;;;23.73;2.97;;;5.80;99.90;;;;;;5074025;28;20492;-85
2023/01/30 05:08:10;;;;;;;24.10;3.40;;;5.70;99.90;;;;;;5071403;28;20119;-84
2023/01/30 05:10:35;;;;;;;20.53;2.33;;;6.40;99.90;;;;;;5073932;28;20079;-83
2023/01/30 05:13:03;;;;;;;16.87;2.67;;;5.70;99.90;;;;;;5057270;28;20336;-84
2023/01/30 05:15:29;;;;;;;16.33;2.47;;;5.70;99.90;;;;;;5073775;28;20044;-84
2023/01/30 05:17:54;;;;;;;25.75;3.47;;;5.70;99.90;;;;;;5040805;28;20036;-83
2023/01/30 05:20:20;;;;;;;17.10;2.60;;;5.60;99.90;;;;;;5055547;28;20491;-82
2023/01/30 05:22:46;;;;;;;17.85;2.67;;;5.60;99.90;;;;;;5040116;28;20036;-83
2023/01/30 05:25:11;;;;;;;12.90;1.97;;;5.60;99.90;;;;;;5072672;28;20081;-84
2023/01/30 05:27:37;;;;;;;18.55;2.90;;;5.60;99.90;;;;;;5040688;28;20591;-83
2023/01/30 05:30:04;;;;;;;17.20;3.83;;;5.60;99.90;;;;;;5040798;28;20111;-84
2023/01/30 05:32:29;;;;;;;;;;;5.60;99.90;;;;;;5040466;28;20052;-86
2023/01/30 05:34:55;;;;;;;18.52;3.03;;;5.60;99.90;;;;;;5073920;28;19928;-86
2023/01/30 05:37:24;;;;;;;18.70;3.28;;;5.60;99.90;;;;;;5038314;28;20103;-87
2023/01/30 05:39:50;;;;;;;22.65;2.95;;;5.50;99.90;;;;;;5041168;28;20094;-87
2023/01/30 05:42:15;;;;;;;16.63;2.88;;;5.50;99.90;;;;;;5040683;28;20032;-87
2023/01/30 05:44:41;;;;;;;14.93;2.80;;;5.50;99.90;;;;;;5024470;28;20120;-85
2023/01/30 05:47:07;;;;;;;14.77;2.60;;;5.50;99.90;;;;;;5057531;28;20370;-85
2023/01/30 05:49:33;;;;;;;17.10;2.17;;;5.50;99.90;;;;;;5054877;28;20044;-84
2023/01/30 05:51:58;;;;;;;17.93;2.97;;;5.40;99.90;;;;;;5039777;28;20328;-81
2023/01/30 05:54:24;;;;;;;19.33;2.53;;;6.30;99.90;;;;;;5072241;28;20879;-82
2023/01/30 05:56:50;;;;;;;16.90;3.10;;;5.70;99.90;;;;;;5039234;28;20295;-82
2023/01/30 05:59:17;;;;;;;21.83;3.00;;;6.00;99.90;;;;;;5021774;28;20037;-82
2023/01/30 06:01:43;;;;;;;21.00;3.30;;;5.30;99.90;;;;;;5072349;28;20095;-82
2023/01/30 06:04:09;;;;;;;20.75;2.80;;;5.30;99.90;;;;;;5072633;28;20037;-82
2023/01/30 06:06:35;;;;;;;17.98;2.28;;;5.50;99.90;;;;;;5073609;28;20407;-83
2023/01/30 06:09:00;;;;;;;20.30;3.17;;;5.30;99.90;;;;;;5055979;28;20036;-82
2023/01/30 06:11:26;;;;;;;20.38;2.80;;;5.40;99.90;;;;;;5055462;28;20159;-82
2023/01/30 06:13:52;;;;;;;23.90;3.13;;;5.50;99.90;;;;;;5055661;28;20144;-83
2023/01/30 06:16:18;;;;;;;18.00;3.60;;;5.60;99.90;;;;;;5048794;28;20036;-82
2023/01/30 06:18:48;;;;;;;16.50;4.13;;;6.30;99.90;;;;;;5067371;28;20118;-82
2023/01/30 06:21:15;;;;;;;11.68;2.38;;;5.70;99.90;;;;;;5079229;28;20131;-82
2023/01/30 06:23:41;;;;;;;20.25;2.85;;;4.90;99.90;;;;;;5055082;28;20036;-81
2023/01/30 06:26:07;;;;;;;;;;;5.80;99.90;;;;;;5057090;28;20044;-82
2023/01/30 06:28:33;;;;;;;13.02;2.55;;;5.80;99.90;;;;;;5056370;28;19966;-83
2023/01/30 06:30:59;;;;;;;16.88;2.92;;;5.90;99.90;;;;;;5057984;28;20118;-82
2023/01/30 06:33:24;;;;;;;25.77;3.08;;;5.90;99.90;;;;;;5038668;28;20044;-82
2023/01/30 06:35:51;;;;;;;16.27;3.17;;;5.80;99.90;;;;;;5055710;28;20097;-82
2023/01/30 06:38:18;;;;;;;20.75;3.47;;;5.80;99.90;;;;;;5054869;28;20048;-82
2023/01/30 06:40:46;;;;;;;23.27;3.63;;;5.90;99.90;;;;;;5055606;28;20069;-82
2023/01/30 06:43:12;;;;;;;19.95;3.95;;;5.80;99.90;;;;;;5069895;28;20381;-82
2023/01/30 06:45:39;;;;;;;28.90;3.78;;;5.80;99.90;;;;;;5055503;28;20497;-82
2023/01/30 06:48:05;;;;;;;;;;;5.80;99.90;;;;;;5072515;28;20120;-83
2023/01/30 06:50:31;;;;;;;19.40;2.83;;;5.90;99.90;;;;;;5072143;28;20007;-82
2023/01/30 06:53:01;;;;;;;13.57;2.60;;;5.80;99.90;;;;;;5038845;28;20032;-82
2023/01/30 06:55:27;;;;;;;27.05;3.47;;;5.80;99.90;;;;;;5054963;28;20082;-82
2023/01/30 06:58:05;;;;;;;17.25;4.47;;;5.80;99.90;;;;;;5038301;28;20080;-82
2023/01/30 07:00:32;;;;;;;18.20;3.45;;;5.90;99.90;;;;;;5071804;28;20415;-82
2023/01/30 07:02:58;;;;;;;18.73;3.65;;;5.80;99.90;;;;;;5054517;28;20040;-82
2023/01/30 07:05:23;;;;;;;21.50;3.22;;;5.90;99.90;;;;;;5054374;28;20523;-82
2023/01/30 07:07:49;;;;;;;25.27;4.05;;;6.50;99.90;;;;;;5071365;28;20124;-82
2023/01/30 07:10:15;;;;;;;18.83;3.00;;;5.90;99.90;;;;;;5071127;28;20044;-82
2023/01/30 07:12:41;;;;;;;19.05;3.10;;;6.00;99.90;;;;;;5054647;28;20054;-82
2023/01/30 07:15:07;;;;;;;19.77;3.40;;;5.90;99.90;;;;;;5054752;28;20041;-82
2023/01/30 07:17:33;;;;;;;20.35;3.17;;;5.90;99.90;;;;;;5038216;28;20523;-82
2023/01/30 07:19:59;;;;;;;26.48;4.63;;;5.90;99.90;;;;;;5037605;28;20024;-82
2023/01/30 07:22:25;;;;;;;21.65;3.65;;;6.00;99.90;;;;;;5070653;28;20087;-82
2023/01/30 07:24:50;;;;;;;17.65;3.40;;;6.00;99.90;;;;;;5021451;28;20170;-82
2023/01/30 07:27:16;;;;;;;17.57;3.40;;;6.00;99.90;;;;;;5037299;28;20123;-83
2023/01/30 07:29:42;;;;;;;14.80;2.58;;;6.00;99.90;;;;;;5071666;28;20385;-83
2023/01/30 07:32:14;;;;;;;20.48;2.90;;;6.00;99.90;;;;;;5054556;28;20120;-83
2023/01/30 07:34:40;;;;;;;22.95;3.25;;;6.00;99.90;;;;;;5064665;28;20099;-83
2023/01/30 07:37:06;;;;;;;20.27;3.45;;;6.00;99.90;;;;;;5071631;28;20037;-83
2023/01/30 07:39:32;;;;;;;22.00;4.45;;;6.50;99.90;;;;;;5054957;28;20086;-83
2023/01/30 07:42:02;;;;;;;16.55;3.42;;;6.10;99.90;;;;;;5054485;28;20045;-83
2023/01/30 07:44:28;;;;;;;18.63;2.80;;;6.00;99.90;;;;;;5071066;28;20123;-83
2023/01/30 07:46:53;;;;;;;12.57;2.40;;;6.00;99.90;;;;;;5054163;28;20075;-83
2023/01/30 07:49:19;;;;;;;19.73;3.30;;;6.00;99.90;;;;;;5054658;28;20119;-83
2023/01/30 07:51:45;;;;;;;17.53;2.77;;;6.00;99.90;;;;;;5054262;28;20289;-81
2023/01/30 07:54:11;;;;;;;21.77;3.42;;;7.10;99.90;;;;;;5042846;28;20386;-81
2023/01/30 07:56:36;;;;;;;16.77;2.90;;;6.10;99.90;;;;;;5067616;28;20128;-81
2023/01/30 07:59:04;;;;;;;17.08;2.65;;;6.10;99.90;;;;;;5054006;28;20544;-81
2023/01/30 08:01:30;;;;;;;20.08;3.67;;;6.10;99.90;;;;;;5053867;28;20090;-81
2023/01/30 08:03:56;;;;;;;22.40;3.50;;;6.50;99.90;;;;;;5070856;28;20516;-81
2023/01/30 08:06:22;;;;;;;17.65;3.08;;;6.20;99.90;;;;;;5037610;28;20032;-81
2023/01/30 08:08:48;;;;;;;22.23;3.05;;;6.20;99.90;;;;;;5070820;28;20144;-81
2023/01/30 08:11:14;;;;;;;16.65;2.67;;;6.30;99.90;;;;;;5037932;28;20017;-81
2023/01/30 08:13:40;;;;;;;;;;;6.40;99.90;;;;;;5055468;28;20033;-81
2023/01/30 08:16:06;;;;;;;20.80;3.53;;;6.20;99.90;;;;;;5064843;28;19927;-81
2023/01/30 08:18:33;;;;;;;19.60;3.63;;;6.30;99.90;;;;;;5056830;28;20115;-81
2023/01/30 08:20:59;;;;;;;23.77;3.42;;;6.30;99.90;;;;;;5073640;28;20036;-82
2023/01/30 08:23:26;;;;;;;20.58;3.60;;;6.30;99.90;;;;;;5073963;28;20036;-81
2023/01/30 08:25:59;;;;;;;19.30;3.25;;;6.30;99.90;;;;;;5057644;28;20457;-81
2023/01/30 08:28:26;;;;;;;20.27;3.00;;;6.30;99.90;;;;;;5074062;28;20036;-81
2023/01/30 08:30:53;;;;;;;20.15;3.33;;;6.30;99.90;;;;;;5074198;28;20036;-83
2023/01/30 08:33:19;;;;;;;;;;;6.20;99.90;;;;;;5057887;28;20036;-82
2023/01/30 08:35:45;;;;;;;15.88;3.00;;;6.30;99.90;;;;;;5073591;28;20337;-82
2023/01/30 08:38:11;;;;;;;19.75;3.38;;;6.30;99.90;;;;;;5040422;28;20040;-82
2023/01/30 08:40:36;;;;;;;28.08;3.50;;;6.30;99.90;;;;;;5073707;28;20032;-82
2023/01/30 08:43:03;;;;;;;16.40;2.83;;;6.30;99.90;;;;;;5057459;28;20051;-83
2023/01/30 08:45:29;;;;;;;;;;;6.30;99.90;;;;;;5056498;28;20076;-82
2023/01/30 08:48:03;;;;;;;18.88;3.65;;;6.40;99.90;;;;;;5056595;28;20280;-81
2023/01/30 08:50:29;;;;;;;22.77;3.40;;;6.40;99.90;;;;;;5055417;28;20484;-82
2023/01/30 08:52:55;;;;;;;;;;;6.40;99.90;;;;;;5075286;28;20415;-82
2023/01/30 08:55:21;;;;;;;18.25;2.85;;;6.50;99.90;;;;;;5056793;28;19951;-82
2023/01/30 08:57:48;;;;;;;20.05;3.10;;;6.60;99.90;;;;;;5073829;28;20136;-82
2023/01/30 09:00:14;;;;;;;;;;;6.70;99.90;;;;;;5074065;28;20040;-82
2023/01/30 09:02:40;;;;;;;18.65;3.20;;;6.90;99.90;;;;;;5056869;28;19927;-82
2023/01/30 09:05:06;;;;;;;20.95;3.05;;;7.00;99.90;;;;;;5056666;28;20036;-82
2023/01/30 09:07:32;;;;;;;18.15;2.78;;;6.90;99.90;;;;;;5039821;28;20050;-82
2023/01/30 09:09:58;;;;;;;22.90;4.15;;;6.90;99.90;;;;;;5056748;28;20032;-81
2023/01/30 09:12:24;;;;;;;18.00;2.70;;;6.90;99.90;;;;;;5072787;28;20059;-83
2023/01/30 09:14:52;;;;;;;21.02;3.40;;;7.30;99.90;;;;;;5072257;28;20313;-81
2023/01/30 09:17:18;;;;;;;23.10;3.17;;;6.70;99.90;;;;;;5072978;28;20037;-81
2023/01/30 09:19:44;;;;;;;20.60;3.85;;;6.70;99.90;;;;;;5056590;28;20060;-83
2023/01/30 09:22:10;;;;;;;20.55;2.65;;;6.50;99.90;;;;;;5073251;28;20040;-81
2023/01/30 09:24:35;;;;;;;23.00;3.37;;;6.90;99.90;;;;;;5055369;28;20361;-81
2023/01/30 09:27:01;;;;;;;20.48;3.20;;;7.00;99.90;;;;;;5056062;28;20101;-81
2023/01/30 09:29:27;;;;;;;17.38;2.83;;;6.70;99.90;;;;;;5055965;28;20040;-81
2023/01/30 09:31:55;;;;;;;17.83;3.50;;;6.70;99.90;;;;;;5056625;28;20090;-82
2023/01/30 09:34:26;;;;;;;23.27;3.58;;;6.70;99.90;;;;;;5072811;28;20041;-82
2023/01/30 09:36:56;;;;;;;22.25;3.90;;;6.70;99.90;;;;;;5070862;28;20162;-82
2023/01/30 09:39:22;;;;;;;20.40;3.45;;;6.70;99.90;;;;;;5055966;28;20036;-82
2023/01/30 09:42:04;;;;;;;22.88;3.80;;;6.60;99.90;;;;;;5039966;28;20048;-82
2023/01/30 09:44:45;;;;;;;17.45;3.35;;;6.60;99.90;;;;;;5072692;28;20044;-83
2023/01/30 09:47:37;;;;;;;24.70;3.42;;;6.60;99.90;;;;;;5054474;28;20502;-81
2023/01/30 09:50:44;;;;;;;18.38;3.03;;;6.60;99.90;;;;;;5055945;28;20032;-82
2023/01/30 09:53:35;;;;;;;18.38;3.10;;;6.70;99.90;;;;;;5054876;28;20080;-82
2023/01/30 09:56:01;;;;;;;29.30;3.90;;;6.80;99.90;;;;;;5070679;28;20053;-82
2023/01/30 09:58:45;;;;;;;20.33;3.60;;;6.90;99.90;;;;;;5055271;28;20041;-82
2023/01/30 10:01:26;;;;;;;16.38;3.28;;;7.20;99.90;;;;;;5071992;28;20033;-82
2023/01/30 10:04:13;;;;;;;18.42;3.47;;;7.40;99.90;;;;;;5060544;28;20039;-82
2023/01/30 10:07:02;;;;;;;20.40;3.28;;;7.30;99.90;;;;;;5055454;28;20510;-82
2023/01/30 10:09:44;;;;;;;22.85;3.97;;;7.30;99.90;;;;;;5051107;28;20044;-82
2023/01/30 10:12:27;;;;;;;20.50;3.33;;;7.20;99.90;;;;;;5070390;28;20487;-82
2023/01/30 10:15:08;;;;;;;20.33;3.55;;;7.20;99.90;;;;;;5055334;28;20175;-82
2023/01/30 10:18:03;;;;;;;20.02;3.45;;;7.30;99.90;;;;;;5071321;28;20029;-82
2023/01/30 10:20:34;;;;;;;26.05;3.42;;;7.30;99.90;;;;;;5055221;28;20051;-82
2023/01/30 10:23:18;;;;;;;19.35;3.65;;;7.40;99.90;;;;;;5054968;28;20044;-82
2023/01/30 10:25:54;;;;;;;21.20;3.67;;;7.60;99.90;;;;;;5071509;28;20040;-82
2023/01/30 10:28:41;;;;;;;26.00;4.47;;;7.60;99.90;;;;;;5070414;28;20131;-82
2023/01/30 10:31:13;;;;;;;24.27;4.15;;;7.20;99.90;;;;;;5071471;28;20543;-82
2023/01/30 10:34:03;;;;;;;5.60;1.25;;;6.90;99.90;;;;;;5054830;28;20446;-82
2023/01/30 10:36:44;;;;;;;8.18;1.40;;;6.60;99.90;;;;;;5066612;28;20072;-82
2023/01/30 10:39:28;;;;;;;4.97;0.70;;;6.20;99.90;;;;;;5071394;28;20060;-81
2023/01/30 10:42:09;;;;;;;5.95;0.90;;;5.80;99.90;;;;;;5069920;28;20574;-81
2023/01/30 10:44:35;;;;;;;4.20;0.80;;;5.70;99.90;;;;;;5053636;28;20085;-82
2023/01/30 10:47:09;;;;;;;3.05;0.70;;;5.60;99.90;;;;;;5070779;28;20044;-82
2023/01/30 10:49:45;;;;;;;5.65;1.00;;;6.00;99.90;;;;;;5070358;28;20408;-82
2023/01/30 10:52:43;;;;;;;2.03;0.80;;;6.90;99.90;;;;;;5070142;28;20055;-82
2023/01/30 10:55:19;;;;;;;5.60;0.80;;;7.90;99.90;;;;;;5054060;28;20029;-82
2023/01/30 10:57:57;;;;;;;9.02;1.17;;;8.90;99.90;;;;;;5069963;28;20045;-83
2023/01/30 11:00:29;;;;;;;4.72;0.93;;;9.60;99.90;;;;;;5053190;28;20094;-83
2023/01/30 11:03:44;;;;;;;8.93;1.75;;;10.00;99.90;;;;;;5069167;28;20036;-82
2023/01/30 11:06:23;;;;;;;8.60;1.55;;;10.30;99.90;;;;;;5045352;28;20093;-82
2023/01/30 11:08:49;;;;;;;11.98;2.38;;;10.70;99.90;;;;;;5064471;28;20044;-81
2023/01/30 11:11:29;;;;;;;;;;;10.90;99.90;;;;;;5054753;28;20037;-83
2023/01/30 11:14:06;;;;;;;13.75;2.30;;;10.80;99.90;;;;;;5053150;28;19920;-83
2023/01/30 11:16:42;;;;;;;13.13;2.38;;;10.90;99.90;;;;;;5070071;28;20492;-83
2023/01/30 11:19:09;;;;;;;13.40;2.22;;;11.10;99.90;;;;;;5070556;28;20032;-83
2023/01/30 11:21:36;;;;;;;13.98;2.08;;;11.20;99.90;;;;;;5037342;28;20107;-83
2023/01/30 11:24:13;;;;;;;13.35;2.38;;;11.20;99.90;;;;;;5068842;28;20111;-83
2023/01/30 11:26:39;;;;;;;14.20;2.22;;;11.20;99.90;;;;;;5070464;28;20037;-83
2023/01/30 11:29:37;;;;;;;6.82;2.03;;;11.10;99.90;;;;;;5055881;28;20039;-82
2023/01/30 11:32:05;;;;;;;14.05;2.03;;;11.10;99.90;;;;;;5064193;28;20048;-83
2023/01/30 11:34:31;;;;;;;15.10;2.22;;;11.00;99.90;;;;;;5055669;28;20036;-82
2023/01/30 11:37:29;;;;;;;12.85;2.42;;;11.00;99.90;;;;;;5038464;28;20603;-82
2023/01/30 11:39:55;;;;;;;8.23;1.73;;;11.10;99.90;;;;;;5049522;28;20068;-82
2023/01/30 11:42:29;;;;;;;13.60;1.92;;;11.30;99.90;;;;;;5070442;28;20123;-82
2023/01/30 11:44:58;;;;;;;15.77;1.98;;;11.60;99.90;;;;;;5052160;28;20040;-82
2023/01/30 11:47:26;;;;;;;15.85;2.85;;;11.40;99.90;;;;;;5073775;28;20127;-82
2023/01/30 11:49:57;;;;;;;11.13;1.98;;;10.90;99.90;;;;;;5057355;28;20028;-82
2023/01/30 11:52:29;;;;;;;10.60;1.95;;;10.40;99.90;;;;;;5074384;28;20090;-82
2023/01/30 11:55:05;;;;;;;15.48;2.08;;;9.90;99.90;;;;;;5067966;28;20032;-82
2023/01/30 11:57:41;;;;;;;9.70;1.65;;;9.70;99.90;;;;;;5055194;28;20085;-82
2023/01/30 12:00:18;;;;;;;12.48;2.10;;;9.40;99.90;;;;;;5054981;28;20056;-82
2023/01/30 12:02:46;;;;;;;12.50;1.70;;;9.30;99.90;;;;;;5074022;28;20366;-82
2023/01/30 12:05:33;;;;;;;11.63;2.17;;;9.00;99.90;;;;;;5057369;28;20076;-82
2023/01/30 12:08:20;;;;;;;11.40;2.33;;;8.90;99.90;;;;;;5071109;28;20421;-82
2023/01/30 12:10:49;;;;;;;12.07;2.28;;;8.50;99.90;;;;;;5054579;28;20042;-82
2023/01/30 12:13:38;;;;;;;9.68;1.65;;;8.60;99.90;;;;;;5057458;28;20445;-82
2023/01/30 12:16:36;;;;;;;14.48;2.20;;;8.60;99.90;;;;;;5052188;28;20105;-82
2023/01/30 12:19:11;;;;;;;;;;;9.00;99.90;;;;;;5057236;28;20119;-81
2023/01/30 12:21:51;;;;;;;13.57;2.40;;;9.50;99.90;;;;;;5055063;28;20387;-81
2023/01/30 12:24:28;;;;;;;15.43;2.33;;;10.00;99.90;;;;;;5073812;28;20555;-82
2023/01/30 12:27:08;;;;;;;17.52;2.30;;;10.50;99.90;;;;;;5075057;28;20048;-81
2023/01/30 12:29:53;;;;;;;16.23;2.47;;;10.70;99.90;;;;;;5058317;28;20554;-81
2023/01/30 12:32:22;;;;;;;23.67;3.72;;;10.70;99.90;;;;;;5073776;28;20079;-81
2023/01/30 12:34:49;;;;;;;19.88;2.95;;;10.80;99.90;;;;;;5072642;28;20051;-82
2023/01/30 12:37:27;;;;;;;18.73;3.33;;;10.70;99.90;;;;;;5039951;28;20037;-81
2023/01/30 12:40:31;;;;;;;15.60;2.88;;;10.20;99.90;;;;;;5072795;28;20036;-81
2023/01/30 12:43:33;;;;;;;14.65;3.47;;;10.20;99.90;;;;;;5055490;28;20043;-81
2023/01/30 12:46:35;;;;;;;17.50;2.50;;;10.20;99.90;;;;;;5072535;28;20458;-82
2023/01/30 12:49:49;;;;;;;15.88;3.03;;;10.10;99.90;;;;;;5067157;28;20538;-81
2023/01/30 12:52:36;;;;;;;11.85;2.45;;;9.60;99.90;;;;;;5060168;28;20052;-82
2023/01/30 12:55:20;;;;;;;16.13;2.90;;;9.60;99.90;;;;;;5073646;28;20036;-81
2023/01/30 12:57:52;;;;;;;20.67;3.47;;;9.50;99.90;;;;;;5063087;28;20052;-81
2023/01/30 13:00:32;;;;;;;16.23;2.72;;;9.60;99.90;;;;;;5071615;28;20114;-81
2023/01/30 13:03:25;;;;;;;18.27;3.30;;;9.80;99.90;;;;;;5056198;28;20055;-81
2023/01/30 13:06:25;;;;;;;13.23;2.58;;;9.60;99.90;;;;;;5044612;28;20052;-81
2023/01/30 13:09:06;;;;;;;13.50;2.35;;;9.60;99.90;;;;;;5055866;28;20043;-81
2023/01/30 13:11:38;;;;;;;13.95;2.58;;;9.50;99.90;;;;;;5063763;28;20039;-81
2023/01/30 13:14:27;;;;;;;12.82;2.42;;;9.20;99.90;;;;;;5055883;28;20087;-81
2023/01/30 13:17:00;;;;;;;16.75;2.63;;;9.10;99.90;;;;;;5052263;28;20745;-81